Time;durP1;ratioP1;P1;durP2;ratioP2;P2;SDS_P1;SDS_P2;PMS_P1;PMS_P2;Temp;Humidity;BMP_temperature;BMP_pressure;BME280_temperature;BME280_humidity;BME280_pressure;Samples;Min_cycle;Max_cycle;Signal;HPM_P1;HPM_P2
2023/01/04 00:01:49;;;;;;;6.45;2.30;;;;;;;15.60;55.51;101823.81;6156755;23;20022;-41
2023/01/04 00:04:16;;;;;;;5.13;2.40;;;;;;;15.61;55.24;101814.81;6155903;23;20110;-40
2023/01/04 00:06:43;;;;;;;5.15;2.10;;;;;;;15.63;55.12;101801.34;6156842;23;20100;-40
2023/01/04 00:09:09;;;;;;;5.18;2.90;;;;;;;15.62;54.94;101794.28;6155272;23;20021;-40
2023/01/04 00:11:36;;;;;;;6.25;2.83;;;;;;;15.63;56.24;101794.16;6155509;23;20036;-41
2023/01/04 00:14:02;;;;;;;5.43;2.30;;;;;;;15.62;55.42;101795.13;6153904;23;20394;-42
2023/01/04 00:16:29;;;;;;;7.72;2.45;;;;;;;15.62;55.86;101779.09;6153932;23;20044;-40
2023/01/04 00:18:57;;;;;;;7.45;2.42;;;;;;;15.63;55.56;101782.63;6153215;23;20035;-40
2023/01/04 00:21:26;;;;;;;5.97;2.60;;;;;;;15.64;55.86;101771.84;6154174;23;20028;-40
2023/01/04 00:23:54;;;;;;;5.13;2.20;;;;;;;15.63;56.30;101766.59;6152796;23;20022;-38
2023/01/04 00:26:24;;;;;;;4.30;1.85;;;;;;;15.64;56.19;101752.25;6153872;23;20026;-41
2023/01/04 00:28:58;;;;;;;4.75;2.05;;;;;;;15.62;56.49;101751.53;6154146;23;20037;-40
2023/01/04 00:31:26;;;;;;;4.03;2.10;;;;;;;15.64;55.44;101757.59;6153428;23;20025;-41
2023/01/04 00:33:58;;;;;;;4.18;1.92;;;;;;;15.63;56.38;101726.50;6154006;23;20092;-41
2023/01/04 00:36:25;;;;;;;5.35;2.08;;;;;;;15.62;56.21;101749.72;6154301;23;20096;-41
2023/01/04 00:39:08;;;;;;;3.58;1.98;;;;;;;15.62;56.38;101738.19;6153477;23;20060;-41
2023/01/04 00:41:41;;;;;;;6.65;2.33;;;;;;;15.61;55.86;101728.47;6152803;23;20061;-40
2023/01/04 00:44:27;;;;;;;7.47;2.22;;;;;;;15.62;56.38;101714.13;6153281;23;20654;-38
2023/01/04 00:46:54;;;;;;;6.13;2.33;;;;;;;15.60;56.02;101703.56;6156614;23;20044;-40
2023/01/04 00:49:20;;;;;;;5.40;2.20;;;;;;;15.61;56.29;101704.41;6156254;23;20049;-41
2023/01/04 00:51:47;;;;;;;4.57;2.05;;;;;;;15.59;56.37;101707.19;6156093;23;20028;-41
2023/01/04 00:54:14;;;;;;;5.43;2.15;;;;;;;15.60;56.25;101690.19;6155503;23;20528;-41
2023/01/04 00:56:41;;;;;;;4.50;2.17;;;;;;;15.58;55.95;101686.78;6158097;23;20025;-40
2023/01/04 00:59:10;;;;;;;4.05;1.92;;;;;;;15.58;56.07;101673.41;6158444;23;20028;-41
2023/01/04 01:01:38;;;;;;;3.92;1.38;;;;;;;15.58;55.78;101683.25;6158122;23;20029;-41
2023/01/04 01:04:05;;;;;;;3.85;1.55;;;;;;;15.57;56.91;101682.41;6157294;23;20073;-41
2023/01/04 01:06:33;;;;;;;2.05;1.45;;;;;;;15.57;56.84;101671.72;6158202;23;20453;-40
2023/01/04 01:09:00;;;;;;;2.55;1.75;;;;;;;15.58;56.74;101683.25;6157234;23;20028;-41
2023/01/04 01:11:28;;;;;;;4.53;2.17;;;;;;;15.57;56.92;101661.03;6157406;23;20063;-41
2023/01/04 01:13:54;;;;;;;3.22;1.80;;;;;;;15.56;56.79;101659.34;6158741;23;20056;-41
2023/01/04 01:16:22;;;;;;;2.70;1.63;;;;;;;15.57;56.08;101654.84;6158314;23;20022;-41
2023/01/04 01:19:09;;;;;;;2.67;1.55;;;;;;;15.56;56.96;101646.00;6156000;23;20084;-40
2023/01/04 01:21:36;;;;;;;1.83;1.33;;;;;;;15.58;56.87;101654.72;6155112;23;20104;-40
2023/01/04 01:24:03;;;;;;;3.28;1.70;;;;;;;15.58;57.35;101648.53;6154581;23;20044;-41
2023/01/04 01:26:30;;;;;;;2.17;1.38;;;;;;;15.59;57.22;101636.84;6156362;23;20100;-41
2023/01/04 01:28:57;;;;;;;2.63;1.58;;;;;;;15.59;57.05;101648.41;6156030;23;20021;-39
2023/01/04 01:31:26;;;;;;;3.15;1.85;;;;;;;15.58;56.41;101644.03;6155232;23;20029;-43
2023/01/04 01:33:54;;;;;;;3.22;1.45;;;;;;;15.59;57.38;101636.84;6154259;23;20068;-41
2023/01/04 01:36:23;;;;;;;2.72;1.50;;;;;;;15.59;57.20;101644.88;6154932;23;20285;-41
2023/01/04 01:38:50;;;;;;;2.47;1.08;;;;;;;15.60;56.60;101638.56;6152835;23;20293;-40
2023/01/04 01:41:20;;;;;;;2.95;1.42;;;;;;;15.60;56.23;101636.75;6155660;23;20047;-41
2023/01/04 01:43:59;;;;;;;3.65;1.30;;;;;;;15.60;57.11;101631.41;6155513;23;20022;-41
2023/01/04 01:46:31;;;;;;;2.85;1.58;;;;;;;15.61;56.54;101635.78;6152930;23;20026;-38
2023/01/04 01:49:36;;;;;;;3.40;1.42;;;;;;;15.62;56.67;101645.50;6155289;23;20055;-40
2023/01/04 01:52:05;;;;;;;2.85;1.40;;;;;;;15.64;57.20;101635.56;6158018;23;20032;-39
2023/01/04 01:54:38;;;;;;;2.42;1.20;;;;;;;15.65;57.35;101639.09;6155939;23;20028;-40
2023/01/04 01:57:08;;;;;;;3.35;1.80;;;;;;;15.66;57.41;101638.97;6158562;23;20100;-40
2023/01/04 01:59:39;;;;;;;3.55;1.33;;;;;;;15.66;57.52;101633.63;6158082;23;20053;-40
2023/01/04 02:02:06;;;;;;;2.47;1.27;;;;;;;15.68;57.29;101633.53;6157981;23;20456;-39
2023/01/04 02:04:35;;;;;;;2.35;1.27;;;;;;;15.68;56.91;101630.84;6156674;23;20093;-40
2023/01/04 02:07:03;;;;;;;1.83;1.05;;;;;;;15.67;57.25;101640.66;6158167;23;20025;-41
2023/01/04 02:09:31;;;;;;;2.65;1.30;;;;;;;15.69;57.33;101641.41;6156178;23;20631;-40
2023/01/04 02:11:57;;;;;;;2.25;1.23;;;;;;;15.69;57.34;101638.75;6157128;23;20134;-42
2023/01/04 02:14:28;;;;;;;1.63;1.00;;;;;;;15.70;57.21;101631.56;6157523;23;20105;-39
2023/01/04 02:17:12;;;;;;;1.77;1.33;;;;;;;15.69;57.02;101630.72;6157479;23;20029;-39
2023/01/04 02:20:11;;;;;;;2.83;1.63;;;;;;;15.69;58.04;101625.38;6157176;23;20029;-40
2023/01/04 02:22:44;;;;;;;2.13;1.45;;;;;;;15.71;57.66;101631.44;6157884;23;20113;-41
2023/01/04 02:25:41;;;;;;;4.05;1.55;;;;;;;15.70;57.38;101632.44;6155085;23;20109;-41
2023/01/04 02:28:14;;;;;;;2.88;1.10;;;;;;;15.72;57.96;101622.47;6156887;23;20100;-40
2023/01/04 02:30:44;;;;;;;1.63;1.17;;;;;;;15.72;57.55;101617.13;6157136;23;20104;-41
2023/01/04 02:33:29;;;;;;;2.03;1.30;;;;;;;15.71;58.04;101630.59;6155935;23;20025;-39
2023/01/04 02:36:06;;;;;;;2.08;1.30;;;;;;;15.73;57.13;101610.81;6156136;23;20113;-41
2023/01/04 02:38:35;;;;;;;2.45;1.33;;;;;;;15.73;57.20;101623.34;6153169;23;20579;-39
2023/01/04 02:41:14;;;;;;;1.83;1.17;;;;;;;15.74;58.36;101617.00;6156060;23;20027;-39
2023/01/04 02:46:47;;;;;;;2.00;1.27;;;;;;;15.76;58.02;101612.41;6156060;23;20293;-40
2023/01/04 02:51:58;;;;;;;2.25;1.30;;;;;;;15.80;57.90;101603.19;6155893;23;20061;-41
2023/01/04 02:54:31;;;;;;;2.22;1.20;;;;;;;15.80;58.08;101600.50;6155196;23;20017;-41
2023/01/04 02:57:14;;;;;;;1.95;1.00;;;;;;;15.82;58.15;101576.31;6157630;23;20033;-40
2023/01/04 02:59:49;;;;;;;1.35;1.08;;;;;;;15.82;57.44;101609.22;6155879;23;20322;-40
2023/01/04 03:06:15;;;;;;;1.65;1.20;;;;;;;15.84;58.08;101590.41;6156236;23;20100;-41
2023/01/04 03:08:57;;;;;;;1.67;1.25;;;;;;;15.85;58.37;101605.47;6151471;23;20025;-40
2023/01/04 03:14:28;;;;;;;2.15;1.30;;;;;;;15.86;57.56;101596.47;6153349;23;20098;-40
2023/01/04 03:16:59;;;;;;;2.10;1.55;;;;;;;15.87;57.72;101568.78;6151059;23;20026;-40
2023/01/04 03:19:59;;;;;;;3.53;1.25;;;;;;;15.85;57.57;101587.63;6152251;23;20043;-40
2023/01/04 03:36:53;;;;;;;1.92;1.00;;;;;;;15.88;58.92;101570.47;6155167;23;20021;-40
2023/01/04 03:48:33;;;;;;;1.45;1.00;;;;;;;15.90;58.63;101561.38;6153917;23;20396;-41
2023/01/04 03:51:09;;;;;;;2.90;1.13;;;;;;;15.90;58.96;101548.00;6155508;23;20028;-39
2023/01/04 03:53:44;;;;;;;2.25;0.90;;;;;;;15.90;58.00;101544.47;6154293;23;20274;-41
2023/01/04 03:56:12;;;;;;;0.85;0.70;;;;;;;15.92;58.17;101534.50;6153920;23;20100;-40
2023/01/04 03:58:38;;;;;;;1.33;0.90;;;;;;;15.93;58.63;101539.75;6155169;23;20033;-41
2023/01/04 04:01:06;;;;;;;1.33;0.98;;;;;;;15.94;57.95;101543.25;6155390;23;20021;-41
2023/01/04 04:09:03;;;;;;;1.73;1.00;;;;;;;15.98;57.91;101517.97;6153333;23;20035;-40
2023/01/04 04:11:30;;;;;;;1.40;0.80;;;;;;;16.00;58.62;101529.38;6154510;23;20032;-39
2023/01/04 04:13:58;;;;;;;0.77;0.77;;;;;;;15.99;58.66;101523.19;6154322;23;20032;-40
2023/01/04 04:16:25;;;;;;;0.98;0.80;;;;;;;16.00;58.65;101518.69;6155722;23;20026;-41
2023/01/04 04:18:52;;;;;;;1.88;0.90;;;;;;;16.00;58.12;101524.91;6154950;23;20029;-40
2023/01/04 04:21:19;;;;;;;2.63;1.15;;;;;;;16.02;59.03;101522.09;6151716;23;20065;-40
2023/01/04 04:23:45;;;;;;;1.85;0.82;;;;;;;16.02;58.87;101512.25;6149756;23;20024;-41
2023/01/04 04:26:12;;;;;;;1.67;0.80;;;;;;;16.03;58.46;101508.59;6151905;23;20068;-41
2023/01/04 04:28:38;;;;;;;2.05;0.80;;;;;;;16.03;59.08;101513.94;6152453;23;20408;-41
2023/01/04 04:31:05;;;;;;;1.73;0.93;;;;;;;16.04;58.76;101496.09;6154558;23;20025;-40
2023/01/04 04:33:32;;;;;;;1.83;1.10;;;;;;;16.05;59.14;101505.81;6153857;23;20021;-42
2023/01/04 04:35:58;;;;;;;1.58;0.85;;;;;;;16.06;58.27;101496.81;6155010;23;20022;-41
2023/01/04 04:38:25;;;;;;;1.00;0.90;;;;;;;16.06;58.88;101493.28;6153324;23;20079;-41
2023/01/04 04:43:36;;;;;;;1.70;1.00;;;;;;;16.06;58.24;101486.13;6154339;23;20027;-41
2023/01/04 04:46:03;;;;;;;1.88;1.17;;;;;;;16.07;59.29;101489.63;6153852;23;20410;-41
2023/01/04 04:48:30;;;;;;;1.10;1.00;;;;;;;16.07;58.96;101478.94;6155248;23;20029;-42
2023/01/04 04:50:56;;;;;;;2.88;0.90;;;;;;;16.08;58.73;101483.31;6154042;23;20029;-41
2023/01/04 04:53:23;;;;;;;2.85;0.80;;;;;;;16.07;58.47;101470.91;6153163;23;20022;-41
2023/01/04 04:55:50;;;;;;;0.95;0.90;;;;;;;16.06;58.89;101470.06;6155855;23;20100;-40
2023/01/04 04:58:17;;;;;;;1.33;0.90;;;;;;;16.06;59.14;101469.22;6156744;23;20044;-41
2023/01/04 05:00:44;;;;;;;1.92;0.90;;;;;;;16.07;59.39;101487.81;6158302;23;20022;-41
2023/01/04 05:03:11;;;;;;;1.30;0.75;;;;;;;16.08;58.98;101484.19;6159311;23;20022;-41
2023/01/04 05:05:38;;;;;;;2.55;0.75;;;;;;;16.07;58.19;101477.13;6158786;23;20072;-40
2023/01/04 05:08:04;;;;;;;1.40;0.90;;;;;;;16.08;59.48;101480.63;6155638;23;20025;-41
2023/01/04 05:10:31;;;;;;;1.73;1.08;;;;;;;16.07;59.37;101487.81;6156993;23;20108;-41
2023/01/04 05:13:00;;;;;;;0.82;0.57;;;;;;;16.09;59.05;101479.69;6157621;23;20108;-39
2023/01/04 05:15:40;;;;;;;2.38;0.70;;;;;;;16.07;58.65;101471.75;6155144;23;20029;-41
2023/01/04 05:18:08;;;;;;;1.30;0.80;;;;;;;16.10;58.42;101474.19;6156311;23;20401;-41
2023/01/04 05:20:35;;;;;;;2.35;0.88;;;;;;;16.09;58.82;101469.84;6154969;23;20100;-41
2023/01/04 05:23:01;;;;;;;3.22;0.98;;;;;;;16.09;58.94;101466.31;6154900;23;20033;-39
2023/01/04 05:25:28;;;;;;;0.98;0.70;;;;;;;16.09;59.28;101456.47;6156835;23;20028;-41
2023/01/04 05:27:55;;;;;;;2.60;0.82;;;;;;;16.09;59.32;101453.78;6155608;23;20029;-41
2023/01/04 05:33:07;;;;;;;1.33;0.80;;;;;;;16.08;59.46;101438.72;6155671;23;20025;-39
2023/01/04 05:35:34;;;;;;;1.75;0.90;;;;;;;16.10;59.04;101434.09;6155274;23;20255;-41
2023/01/04 05:38:00;;;;;;;0.90;0.80;;;;;;;16.10;58.62;101425.22;6154705;23;20125;-41
2023/01/04 05:40:27;;;;;;;1.45;0.65;;;;;;;16.10;58.71;101425.22;6153772;23;20034;-40
2023/01/04 05:42:54;;;;;;;0.73;0.70;;;;;;;16.10;58.33;101425.22;6153510;23;20025;-39
2023/01/04 05:45:20;;;;;;;1.88;0.95;;;;;;;16.10;58.49;101412.69;6153907;23;20018;-42
2023/01/04 05:47:51;;;;;;;3.45;1.10;;;;;;;16.10;59.32;101425.22;6154237;23;20044;-40
2023/01/04 05:50:20;;;;;;;0.95;0.70;;;;;;;16.10;59.73;101418.03;6156116;23;20080;-42
2023/01/04 05:52:47;;;;;;;2.35;0.73;;;;;;;16.10;58.57;101409.16;6157191;23;20088;-43
2023/01/04 05:55:14;;;;;;;1.48;0.85;;;;;;;16.10;58.61;101407.34;6156649;23;20068;-42
2023/01/04 05:57:41;;;;;;;0.68;0.68;;;;;;;16.09;59.17;101413.69;6157828;23;20110;-42
2023/01/04 06:00:10;;;;;;;1.42;0.70;;;;;;;16.09;59.31;101408.31;6157943;23;20025;-39
2023/01/04 06:02:36;;;;;;;2.22;0.75;;;;;;;16.10;58.90;101415.38;6157428;23;20105;-39
2023/01/04 06:05:04;;;;;;;1.15;0.80;;;;;;;16.10;58.60;101401.16;6157145;23;20022;-40
2023/01/04 06:07:31;;;;;;;0.52;0.52;;;;;;;16.10;59.71;101406.50;6157709;23;20030;-40
2023/01/04 06:09:58;;;;;;;1.27;0.80;;;;;;;16.09;59.33;101426.19;6155973;23;20033;-41
2023/01/04 06:12:25;;;;;;;2.47;0.75;;;;;;;16.09;59.51;101434.22;6157855;23;20029;-42
2023/01/04 06:14:51;;;;;;;0.82;0.70;;;;;;;16.08;58.72;101444.06;6157845;23;20104;-39
2023/01/04 06:17:18;;;;;;;1.08;0.70;;;;;;;16.10;59.68;101441.25;6156940;23;20485;-41
2023/01/04 06:19:45;;;;;;;1.52;1.05;;;;;;;16.09;59.00;101445.75;6156766;23;20025;-40
2023/01/04 06:22:11;;;;;;;0.80;0.80;;;;;;;16.11;59.37;101435.78;6157234;23;20413;-41
2023/01/04 06:24:38;;;;;;;1.45;0.70;;;;;;;16.11;59.60;101445.63;6154401;23;20022;-41
2023/01/04 06:27:04;;;;;;;0.57;0.57;;;;;;;16.11;59.49;101446.47;6154383;23;20021;-41
2023/01/04 06:29:31;;;;;;;1.85;0.82;;;;;;;16.13;59.95;101431.16;6152006;23;20416;-41
2023/01/04 06:31:57;;;;;;;1.80;0.77;;;;;;;16.13;59.58;101428.50;6152031;23;20029;-41
2023/01/04 06:34:24;;;;;;;0.68;0.60;;;;;;;16.14;59.30;101419.47;6151423;23;20018;-40
2023/01/04 06:36:56;;;;;;;1.75;0.93;;;;;;;16.15;58.93;101428.34;6152024;23;20100;-41
2023/01/04 06:39:23;;;;;;;0.70;0.70;;;;;;;16.17;58.86;101432.59;6150868;23;20036;-40
2023/01/04 06:41:49;;;;;;;0.93;0.82;;;;;;;16.17;59.57;101423.75;6151603;23;20029;-41
2023/01/04 06:44:16;;;;;;;1.02;0.57;;;;;;;16.18;59.16;101426.28;6152834;23;20328;-41
2023/01/04 06:46:43;;;;;;;1.63;0.80;;;;;;;16.18;59.72;101409.38;6152267;23;20021;-41
2023/01/04 06:49:09;;;;;;;1.27;0.70;;;;;;;16.19;58.87;101411.91;6154911;23;20021;-42
2023/01/04 06:51:36;;;;;;;2.65;0.85;;;;;;;16.19;59.65;101408.41;6155120;23;20473;-42
2023/01/04 06:54:03;;;;;;;1.10;0.90;;;;;;;16.20;58.70;101399.38;6154368;23;20152;-41
2023/01/04 06:56:30;;;;;;;1.65;0.73;;;;;;;16.20;58.73;101408.28;6152831;23;20021;-42
2023/01/04 06:58:57;;;;;;;1.25;0.68;;;;;;;16.20;59.75;101407.41;6155345;23;20021;-42
2023/01/04 07:01:24;;;;;;;1.73;0.80;;;;;;;16.22;59.18;101397.44;6157666;23;20068;-42
2023/01/04 07:03:51;;;;;;;3.03;0.73;;;;;;;16.21;59.25;101399.28;6156485;23;20029;-41
2023/01/04 07:06:17;;;;;;;0.88;0.80;;;;;;;16.22;59.31;101400.13;6157123;23;20040;-42
2023/01/04 07:08:46;;;;;;;1.85;1.00;;;;;;;16.22;59.76;101397.44;6155605;23;20032;-41
2023/01/04 07:11:12;;;;;;;3.58;0.80;;;;;;;16.22;59.46;101389.44;6131452;23;20021;-42
2023/01/04 07:13:39;;;;;;;2.15;0.93;;;;;;;16.21;58.85;101393.94;6156251;23;20517;-42
2023/01/04 07:16:06;;;;;;;1.70;0.70;;;;;;;16.21;59.67;101396.59;6156999;23;20017;-41
2023/01/04 07:18:32;;;;;;;1.40;0.90;;;;;;;16.22;58.87;101389.44;6155111;23;20473;-42
2023/01/04 07:20:59;;;;;;;1.00;0.70;;;;;;;16.22;59.39;101392.94;6154771;23;20025;-41
2023/01/04 07:23:25;;;;;;;1.83;0.82;;;;;;;16.21;59.45;101388.59;6154301;23;20021;-42
2023/01/04 07:25:52;;;;;;;1.92;0.75;;;;;;;16.21;59.41;101377.88;6155034;23;20024;-42
2023/01/04 07:31:07;;;;;;;0.93;0.73;;;;;;;16.22;59.72;101384.91;6154070;23;20025;-42
2023/01/04 07:33:34;;;;;;;2.20;0.75;;;;;;;16.23;59.75;101380.41;6155099;23;20029;-42
2023/01/04 07:36:05;;;;;;;1.52;0.70;;;;;;;16.22;59.91;101374.22;6155951;23;20025;-43
2023/01/04 07:38:33;;;;;;;1.58;1.00;;;;;;;16.22;59.54;101374.22;6153908;23;20274;-42
2023/01/04 07:41:00;;;;;;;0.70;0.70;;;;;;;16.22;59.53;101368.03;6154963;23;20096;-42
2023/01/04 07:43:27;;;;;;;4.32;0.82;;;;;;;16.22;59.30;101376.91;6154768;23;20389;-41
2023/01/04 07:45:54;;;;;;;1.45;0.80;;;;;;;16.23;59.51;101378.59;6156135;23;20646;-42
2023/01/04 07:48:21;;;;;;;1.85;1.08;;;;;;;16.23;60.25;101373.25;6153985;23;20461;-42
2023/01/04 07:50:48;;;;;;;2.05;1.13;;;;;;;16.25;59.37;101370.47;6155166;23;20285;-41
2023/01/04 07:53:15;;;;;;;1.08;0.80;;;;;;;16.25;59.75;101382.00;6153648;23;20385;-41
2023/01/04 07:55:41;;;;;;;3.45;0.85;;;;;;;16.26;59.21;101372.16;6154948;23;20032;-42
2023/01/04 07:58:08;;;;;;;2.40;0.73;;;;;;;16.25;59.93;101360.59;6155761;23;20298;-42
2023/01/04 08:00:34;;;;;;;1.35;0.80;;;;;;;16.26;59.44;101346.25;6154656;23;20025;-43
2023/01/04 08:03:01;;;;;;;2.50;0.80;;;;;;;16.26;59.90;101364.97;6154348;23;20032;-43
2023/01/04 08:05:31;;;;;;;3.38;1.08;;;;;;;16.26;60.19;101364.97;6153269;23;20092;-42
2023/01/04 08:07:58;;;;;;;1.15;0.77;;;;;;;16.27;60.02;101361.31;6148000;23;20045;-42
2023/01/04 08:10:25;;;;;;;1.77;0.85;;;;;;;16.27;60.09;101366.66;6153641;23;20022;-42
2023/01/04 08:12:51;;;;;;;3.85;0.95;;;;;;;16.26;59.08;101356.94;6122545;23;20096;-41
2023/01/04 08:15:18;;;;;;;2.30;0.90;;;;;;;16.27;60.39;101352.44;6124345;23;20480;-42
2023/01/04 08:17:45;;;;;;;7.25;0.77;;;;;;;16.27;59.36;101365.81;6124324;23;20057;-42
2023/01/04 08:20:11;;;;;;;0.98;0.80;;;;;;;16.27;59.50;101371.16;6124755;23;20037;-42
2023/01/04 08:22:38;;;;;;;2.03;0.75;;;;;;;16.27;59.60;101366.66;6121670;23;20029;-43
2023/01/04 08:25:05;;;;;;;0.93;0.70;;;;;;;16.27;60.13;101365.81;6119399;23;20340;-43
2023/01/04 08:27:32;;;;;;;3.13;0.75;;;;;;;16.27;60.06;101372.00;6124735;23;20105;-42
2023/01/04 08:29:59;;;;;;;1.85;0.93;;;;;;;16.26;60.04;101367.63;6124558;23;20062;-42
2023/01/04 08:32:25;;;;;;;1.75;0.80;;;;;;;16.27;60.59;101380.03;6125536;23;20021;-42
2023/01/04 08:34:53;;;;;;;0.60;0.60;;;;;;;16.27;60.24;101366.66;6125310;23;20022;-40
2023/01/04 08:37:19;;;;;;;2.13;1.13;;;;;;;16.27;59.37;101385.38;6124690;23;20034;-42
2023/01/04 08:39:46;;;;;;;1.13;0.80;;;;;;;16.28;60.08;101392.44;6121604;23;20105;-42
2023/01/04 08:42:15;;;;;;;1.02;0.60;;;;;;;16.28;59.85;101388.91;6122962;23;20032;-41
2023/01/04 08:44:53;;;;;;;1.63;0.80;;;;;;;16.28;59.71;101394.25;6125256;23;20097;-42
2023/01/04 08:47:25;;;;;;;1.00;0.70;;;;;;;16.28;59.92;101395.13;6120495;23;20026;-40
2023/01/04 08:49:52;;;;;;;1.13;0.75;;;;;;;16.28;60.59;101395.13;6120565;23;20106;-41
2023/01/04 08:52:18;;;;;;;0.85;0.60;;;;;;;16.29;59.78;101398.63;6118562;23;20034;-41
2023/01/04 08:54:45;;;;;;;1.13;1.00;;;;;;;16.29;60.16;101399.50;6118616;23;20033;-42
2023/01/04 08:57:11;;;;;;;1.13;0.50;;;;;;;16.29;60.01;101393.28;6095345;23;20021;-42
2023/01/04 08:59:38;;;;;;;2.70;0.85;;;;;;;16.30;60.12;101397.66;6120175;23;20294;-42
2023/01/04 09:02:25;;;;;;;2.40;0.80;;;;;;;16.29;60.40;101390.63;6120550;23;20104;-41
2023/01/04 09:04:58;;;;;;;0.57;0.50;;;;;;;16.31;60.31;101391.31;6124375;23;20028;-40
2023/01/04 09:07:28;;;;;;;1.73;0.80;;;;;;;16.32;60.44;101397.50;6121427;23;20026;-42
2023/01/04 09:09:54;;;;;;;2.17;1.20;;;;;;;16.32;60.70;101409.06;6122784;23;20053;-41
2023/01/04 09:12:21;;;;;;;2.35;1.52;;;;;;;16.32;60.25;101403.72;6125893;23;20025;-41
2023/01/04 09:14:47;;;;;;;5.03;2.38;;;;;;;16.33;59.37;101407.25;6152602;23;20031;-40
2023/01/04 09:17:14;;;;;;;6.70;3.40;;;;;;;16.33;60.61;101418.81;6156528;23;20044;-42
2023/01/04 09:19:40;;;;;;;7.10;3.97;;;;;;;16.35;60.35;101405.28;6152912;23;20025;-42
2023/01/04 09:22:07;;;;;;;8.23;4.22;;;;;;;16.34;60.14;101408.94;6151552;23;20052;-42
2023/01/04 09:24:34;;;;;;;9.77;5.35;;;;;;;16.35;60.59;101410.63;6153616;23;20030;-42
2023/01/04 09:27:01;;;;;;;9.90;5.47;;;;;;;16.36;59.38;101415.00;6152538;23;20029;-41
2023/01/04 09:29:27;;;;;;;11.93;6.07;;;;;;;16.36;59.79;101407.84;6153628;23;20504;-41
2023/01/04 09:31:54;;;;;;;14.82;8.15;;;;;;;16.37;60.19;101408.69;6153234;23;20022;-40
2023/01/04 09:34:21;;;;;;;15.32;8.25;;;;;;;16.39;59.99;101412.09;6152604;23;20049;-42
2023/01/04 09:36:48;;;;;;;17.10;9.45;;;;;;;16.39;59.76;101412.09;6152360;23;20477;-42
2023/01/04 09:39:16;;;;;;;16.70;9.15;;;;;;;16.39;59.87;101414.75;6151688;23;20025;-40
2023/01/04 09:41:54;;;;;;;19.08;9.85;;;;;;;16.38;59.95;101427.28;6153093;23;20065;-42
2023/01/04 09:44:40;;;;;;;18.05;9.88;;;;;;;16.39;59.66;101423.63;6153487;23;20025;-42
2023/01/04 09:48:06;;;;;;;18.85;10.95;;;;;;;16.39;60.78;101430.81;6152859;23;20032;-42
2023/01/04 09:50:43;;;;;;;19.80;10.95;;;;;;;16.41;60.35;101439.56;6151603;23;20045;-41
2023/01/04 09:53:26;;;;;;;22.73;12.20;;;;;;;16.42;60.26;101417.19;6151946;23;20108;-41
2023/01/04 09:56:07;;;;;;;23.02;12.45;;;;;;;16.42;60.25;101433.25;6152318;23;20026;-41
2023/01/04 09:58:37;;;;;;;24.35;13.43;;;;;;;16.44;60.08;101425.91;6154660;23;20057;-40
2023/01/04 10:01:13;;;;;;;28.70;14.13;;;;;;;16.43;60.34;101437.59;6156201;23;20068;-43
2023/01/04 10:04:12;;;;;;;23.73;13.80;;;;;;;16.44;60.69;101428.59;6156070;23;20084;-41
2023/01/04 10:06:38;;;;;;;24.17;13.95;;;;;;;16.45;60.45;101427.63;6156651;23;20040;-41
2023/01/04 10:09:13;;;;;;;29.77;15.73;;;;;;;16.44;60.48;101420.56;6156521;23;20108;-42
2023/01/04 10:12:11;;;;;;;29.98;16.20;;;;;;;16.45;59.98;101439.19;6156898;23;20057;-41
2023/01/04 10:14:39;;;;;;;34.63;17.55;;;;;;;16.45;60.02;101435.66;6052722;23;20027;-42
2023/01/04 10:17:13;;;;;;;34.75;18.85;;;;;;;16.46;59.91;101429.31;6157117;23;20105;-42
2023/01/04 10:20:14;;;;;;;36.67;19.15;;;;;;;16.45;60.40;101419.59;6157408;23;20027;-42
2023/01/04 10:23:00;;;;;;;39.63;20.10;;;;;;;16.47;60.27;101434.53;6153662;23;20033;-43
2023/01/04 10:25:59;;;;;;;38.63;19.85;;;;;;;16.46;60.24;101429.31;6155089;23;20029;-42
2023/01/04 10:29:10;;;;;;;41.75;21.67;;;;;;;16.46;59.93;101423.97;6146530;23;20358;-41
2023/01/04 10:31:48;;;;;;;42.72;22.23;;;;;;;16.47;60.67;101413.13;6155976;23;20021;-42
2023/01/04 10:34:29;;;;;;;43.58;22.73;;;;;;;16.48;59.98;101427.34;6156341;23;20029;-42
2023/01/04 10:36:59;;;;;;;42.65;22.20;;;;;;;16.48;60.08;101412.19;6156922;23;20105;-42
2023/01/04 10:39:34;;;;;;;45.75;22.90;;;;;;;16.49;60.13;101413.03;6154709;23;20108;-42
2023/01/04 10:42:22;;;;;;;41.88;22.58;;;;;;;16.49;60.44;101423.72;6154519;23;20056;-42
2023/01/04 10:45:15;;;;;;;45.58;23.23;;;;;;;16.48;60.40;101417.53;6153290;23;20025;-42
2023/01/04 10:47:46;;;;;;;42.03;21.73;;;;;;;16.49;59.81;101419.22;6140454;23;20025;-41
2023/01/04 10:50:40;;;;;;;44.58;23.08;;;;;;;16.51;60.13;101416.41;6150730;23;20030;-42
2023/01/04 10:53:46;;;;;;;46.22;24.00;;;;;;;16.51;59.95;101416.41;6150989;23;20029;-41
2023/01/04 10:56:45;;;;;;;43.17;22.95;;;;;;;16.54;60.44;101402.75;6153565;23;20017;-42
2023/01/04 10:59:30;;;;;;;48.75;23.73;;;;;;;16.52;60.80;101410.06;6091473;23;20029;-40
2023/01/04 11:02:07;;;;;;;44.17;22.92;;;;;;;16.54;60.40;101400.09;6156247;23;20022;-41
2023/01/04 11:04:50;;;;;;;47.50;24.77;;;;;;;16.52;59.92;101392.19;6156353;23;20028;-40
2023/01/04 11:07:23;;;;;;;49.80;26.40;;;;;;;16.55;60.74;101391.06;6154944;23;20401;-41
2023/01/04 11:09:51;;;;;;;46.75;25.05;;;;;;;16.55;59.68;101380.38;6152433;23;20036;-41
2023/01/04 11:12:21;;;;;;;49.88;25.67;;;;;;;16.55;60.10;101391.06;6155966;23;20072;-41
2023/01/04 11:14:50;;;;;;;51.08;25.92;;;;;;;16.56;60.21;101394.59;6156682;23;20350;-40
2023/01/04 11:17:17;;;;;;;46.55;24.63;;;;;;;16.56;60.48;101387.41;6155534;23;20072;-41
2023/01/04 11:19:44;;;;;;;47.75;24.80;;;;;;;16.57;60.69;101362.38;6155791;23;20031;-41
2023/01/04 11:22:20;;;;;;;48.72;24.98;;;;;;;16.56;60.44;101382.06;6155708;23;20032;-40
2023/01/04 11:24:52;;;;;;;50.92;25.60;;;;;;;16.58;59.36;101373.91;6151685;23;20025;-41
2023/01/04 11:28:06;;;;;;;44.95;24.08;;;;;;;16.58;60.33;101381.94;6156550;23;20022;-41
2023/01/04 11:31:08;;;;;;;46.92;24.48;;;;;;;16.58;59.92;101380.13;6155485;23;20031;-41
2023/01/04 11:33:59;;;;;;;49.28;24.80;;;;;;;16.59;59.98;101381.81;6135846;23;20033;-41
2023/01/04 11:36:34;;;;;;;48.53;23.88;;;;;;;16.62;59.75;101384.22;6140237;23;20032;-37
2023/01/04 11:39:01;;;;;;;44.03;23.73;;;;;;;16.63;59.97;101388.59;6153098;23;20061;-40
2023/01/04 11:41:27;;;;;;;45.38;23.75;;;;;;;16.63;59.89;101353.81;6151212;23;20060;-37
2023/01/04 11:44:00;;;;;;;45.97;24.17;;;;;;;16.65;60.37;101389.31;6155248;23;20206;-36
2023/01/04 11:46:27;;;;;;;46.42;24.55;;;;;;;16.66;60.01;101374.09;6153453;23;20100;-36
2023/01/04 11:48:55;;;;;;;47.13;25.00;;;;;;;16.69;60.17;101382.72;6089499;23;20346;-36
2023/01/04 11:51:27;;;;;;;43.75;23.70;;;;;;;16.72;59.97;101369.09;6140618;23;20056;-35
2023/01/04 11:54:18;;;;;;;47.17;24.27;;;;;;;16.77;60.20;101387.47;6142537;23;20722;-37
2023/01/04 11:57:05;;;;;;;48.38;26.13;;;;;;;16.78;60.72;101392.66;6144299;23;20351;-35
2023/01/04 11:59:37;;;;;;;48.83;25.30;;;;;;;16.82;60.34;101365.63;6143429;23;20032;-36
2023/01/04 12:02:22;;;;;;;50.03;27.15;;;;;;;16.82;60.11;101369.16;6142824;23;20025;-36
2023/01/04 12:05:19;;;;;;;50.58;27.33;;;;;;;16.84;60.77;101367.19;6142039;23;20025;-36
2023/01/04 12:07:54;;;;;;;49.45;27.35;;;;;;;16.88;59.97;101370.44;6141911;23;20322;-36
2023/01/04 12:10:25;;;;;;;51.88;28.65;;;;;;;16.89;59.68;101359.63;6064740;23;20063;-38
2023/01/04 12:13:00;;;;;;;56.10;29.42;;;;;;;16.91;60.35;101375.53;6142411;23;20457;-37
2023/01/04 12:15:32;;;;;;;52.63;29.10;;;;;;;16.93;59.76;101365.56;6143421;23;20116;-36
2023/01/04 12:18:10;;;;;;;54.22;29.23;;;;;;;16.96;60.04;101371.47;6145501;23;20029;-36
2023/01/04 12:20:36;;;;;;;53.05;28.23;;;;;;;16.99;59.82;101368.53;6142684;23;20032;-36
2023/01/04 12:23:04;;;;;;;54.97;28.80;;;;;;;17.02;60.19;101362.06;6142976;23;20040;-37
2023/01/04 12:25:44;;;;;;;53.33;28.17;;;;;;;17.03;59.96;101351.22;6145485;23;20045;-35
2023/01/04 12:28:41;;;;;;;59.22;31.27;;;;;;;17.06;60.17;101358.13;6143478;23;20026;-37
2023/01/04 12:31:20;;;;;;;52.67;26.55;;;;;;;17.09;60.34;101347.16;6125054;23;20045;-35
2023/01/04 12:33:53;;;;;;;47.85;26.25;;;;;;;17.11;59.88;101349.69;6141626;23;20461;-36